Forside
METAR-TAF:

METAR-TAF

Lufthavne :

Lowell, Idaho, USA

Breddekreds: 46-08-39N, længdekreds: 115-35-47W, højde: 480 m

Aktuelle vejr

Denne rapport blev lavet for 52 minutter siden, kl. 14:52 UTC
Vind 3 kt fra nord
Temperatur 4°C
Fugtighed 75%
Tryk 1017 hPa

METAR: KP69 231452Z AUTO 36003KT 04/00 A3002 RMK AO1 SLP174 T00440000 51002

Tid: 08:44 (15:44 UTC)


TAF: fraværende

Vejrobservationer og prognoser fra mere end 4000 lufthavne (METAR og TAF).

De gule og røde prikker repræsenterer de meteorologiske stationer.

Flyt musen over at se navnet på stationen.

Så klik over at se vejr observationer og prognoser.

At skifte det kort: Klik på de grønne knapper med et sort kors for at zoome ind; på den grønne knap med en bindestreg for at zoome ud; eller på de grønne pile for tilstødende kort.


METAR-TAF: